Baltimore, Maryland
Traffic Map
Current Weather Conditions
Baltimore, Maryland
Broken Clouds
Broken Clouds
79°
Feels Like: 79°
Wind Chill: 79° Ceiling: 25000
Heat Index: 79° Visibility: 10mi
Dew Point: 48° Wind: 7mph
Humidity: 34% Direction: 290° (WNW)
Pressure: 29.97in Gusts: 0mph
Raw Report DataKBWI 242254Z 29006KT 10SM FEW095 BKN250 26/09 A2997 RMK AO2 SLP147 T02610089
Traffic Incident Summary
Active as of:
Severity:
Category:
InformationThere was an issue retrieving the traffic information for this location. Please try a different location or try again shortly.
Advertisements
Track Severe Weather on mobile